Time;durP1;ratioP1;P1;durP2;ratioP2;P2;SDS_P1;SDS_P2;PMS_P1;PMS_P2;Temp;Humidity;BMP_temperature;BMP_pressure;BME280_temperature;BME280_humidity;BME280_pressure;Samples;Min_cycle;Max_cycle;Signal;HPM_P1;HPM_P2
2022/02/28 00:00:32;;;;;;;10.18;6.70;;;;;;;;;;4953532;28;20046;-78
2022/02/28 00:02:58;;;;;;;12.05;7.40;;;;;;;;;;4944890;28;20042;-78
2022/02/28 00:05:24;;;;;;;12.38;6.85;;;;;;;;;;4937617;28;20061;-78
2022/02/28 00:07:51;;;;;;;11.45;7.10;;;;;;;;;;4957081;28;20050;-78
2022/02/28 00:10:17;;;;;;;11.07;7.07;;;;;;;;;;4958887;28;20053;-78
2022/02/28 00:12:44;;;;;;;13.75;7.68;;;;;;;;;;4959706;28;20042;-78
2022/02/28 00:15:10;;;;;;;9.45;7.13;;;;;;;;;;4959203;28;20133;-78
2022/02/28 00:17:37;;;;;;;13.57;6.97;;;;;;;;;;4942909;28;20064;-78
2022/02/28 00:20:07;;;;;;;9.65;6.68;;;;;;;;;;4958595;23;20063;-77
2022/02/28 00:22:33;;;;;;;10.43;7.10;;;;;;;;;;4950971;28;20035;-77
2022/02/28 00:24:59;;;;;;;10.82;6.88;;;;;;;;;;4955871;28;20035;-77
2022/02/28 00:27:26;;;;;;;11.30;7.18;;;;;;;;;;4970049;28;20097;-77
2022/02/28 00:29:52;;;;;;;9.98;6.72;;;;;;;;;;4964330;28;20050;-78
2022/02/28 00:32:19;;;;;;;10.27;7.00;;;;;;;;;;4970821;28;20058;-77
2022/02/28 00:34:45;;;;;;;12.05;7.20;;;;;;;;;;4961525;28;20098;-77
2022/02/28 00:37:11;;;;;;;10.43;7.05;;;;;;;;;;4969358;28;20043;-77
2022/02/28 00:39:37;;;;;;;11.00;6.60;;;;;;;;;;4972273;28;20038;-77
2022/02/28 00:42:03;;;;;;;9.48;7.18;;;;;;;;;;4974437;28;20042;-77
2022/02/28 00:44:29;;;;;;;11.18;7.43;;;;;;;;;;4973502;28;20047;-77
2022/02/28 00:46:55;;;;;;;11.70;7.50;;;;;;;;;;4974026;28;20051;-77
2022/02/28 00:49:21;;;;;;;13.98;7.43;;;;;;;;;;4972643;28;20050;-78
2022/02/28 00:51:47;;;;;;;11.30;6.95;;;;;;;;;;4973099;28;20531;-77
2022/02/28 00:54:13;;;;;;;10.60;6.93;;;;;;;;;;4965719;28;20046;-77
2022/02/28 00:56:39;;;;;;;13.20;7.32;;;;;;;;;;4973114;28;20053;-77
2022/02/28 00:59:05;;;;;;;10.88;7.40;;;;;;;;;;4971554;28;20401;-77
2022/02/28 01:01:31;;;;;;;11.18;7.95;;;;;;;;;;4973789;28;20039;-77
2022/02/28 01:03:57;;;;;;;9.88;6.80;;;;;;;;;;4945839;29;20772;-77
2022/02/28 01:06:23;;;;;;;9.90;6.95;;;;;;;;;;4962651;28;20125;-77
2022/02/28 01:08:49;;;;;;;12.52;7.35;;;;;;;;;;4972156;28;20034;-77
2022/02/28 01:11:15;;;;;;;10.30;7.35;;;;;;;;;;4973097;28;20053;-78
2022/02/28 01:13:41;;;;;;;12.25;7.72;;;;;;;;;;4955834;28;20051;-78
2022/02/28 01:16:07;;;;;;;11.18;7.07;;;;;;;;;;4972970;28;20081;-77
2022/02/28 01:18:33;;;;;;;10.68;7.35;;;;;;;;;;4971454;28;20050;-77
2022/02/28 01:20:59;;;;;;;12.73;7.00;;;;;;;;;;4945966;28;20428;-77
2022/02/28 01:23:24;;;;;;;11.32;7.30;;;;;;;;;;4955998;28;20046;-77
2022/02/28 01:25:50;;;;;;;12.45;7.00;;;;;;;;;;4960994;28;20420;-77
2022/02/28 01:28:16;;;;;;;12.77;7.15;;;;;;;;;;4956853;28;20034;-77
2022/02/28 01:30:43;;;;;;;11.02;6.82;;;;;;;;;;4972365;28;20046;-77
2022/02/28 01:33:09;;;;;;;11.60;8.00;;;;;;;;;;4957438;28;20061;-78
2022/02/28 01:35:35;;;;;;;14.02;7.53;;;;;;;;;;4973537;28;20039;-78
2022/02/28 01:38:00;;;;;;;10.05;7.20;;;;;;;;;;4959561;28;20391;-77
2022/02/28 01:40:26;;;;;;;11.30;7.28;;;;;;;;;;4962370;28;20057;-77
2022/02/28 01:42:52;;;;;;;12.35;7.90;;;;;;;;;;4972159;28;20081;-78
2022/02/28 01:45:22;;;;;;;10.30;7.80;;;;;;;;;;4942950;28;20168;-77
2022/02/28 01:47:56;;;;;;;10.40;8.65;;;;;;;;;;4973721;28;20058;-78
2022/02/28 01:50:22;;;;;;;10.85;7.32;;;;;;;;;;4964743;28;20155;-78
2022/02/28 01:52:48;;;;;;;11.52;7.50;;;;;;;;;;4942777;28;20093;-78
2022/02/28 01:55:15;;;;;;;12.02;7.35;;;;;;;;;;4955842;28;20047;-78
2022/02/28 01:57:41;;;;;;;11.85;6.95;;;;;;;;;;4973357;28;20058;-78
2022/02/28 02:00:08;;;;;;;11.93;7.18;;;;;;;;;;4967176;28;20051;-78
2022/02/28 02:02:34;;;;;;;12.10;7.30;;;;;;;;;;4970665;28;20070;-78
2022/02/28 02:05:00;;;;;;;9.52;7.45;;;;;;;;;;4956538;28;20043;-78
2022/02/28 02:07:26;;;;;;;15.35;8.70;;;;;;;;;;4959672;28;21985;-78
2022/02/28 02:09:52;;;;;;;11.60;7.90;;;;;;;;;;4972716;28;20058;-78
2022/02/28 02:12:19;;;;;;;11.48;7.95;;;;;;;;;;4955722;28;20121;-78
2022/02/28 02:14:45;;;;;;;11.88;8.40;;;;;;;;;;4967942;28;20038;-78
2022/02/28 02:17:11;;;;;;;10.68;8.20;;;;;;;;;;4970810;28;20094;-78
2022/02/28 02:19:38;;;;;;;13.27;9.02;;;;;;;;;;4971230;28;21644;-78
2022/02/28 02:22:07;;;;;;;11.70;8.57;;;;;;;;;;4955407;28;20058;-78
2022/02/28 02:24:33;;;;;;;12.25;9.70;;;;;;;;;;4956831;28;20042;-78
2022/02/28 02:26:59;;;;;;;14.48;8.98;;;;;;;;;;4955398;28;20504;-78
2022/02/28 02:29:25;;;;;;;12.80;9.60;;;;;;;;;;4972207;28;20039;-78
2022/02/28 02:31:51;;;;;;;14.48;9.98;;;;;;;;;;4971899;28;20197;-78
2022/02/28 02:34:17;;;;;;;13.55;10.05;;;;;;;;;;4972175;28;20042;-77
2022/02/28 02:36:43;;;;;;;16.38;10.52;;;;;;;;;;4967541;28;20043;-78
2022/02/28 02:39:09;;;;;;;17.50;10.50;;;;;;;;;;4970460;28;20053;-78
2022/02/28 02:41:35;;;;;;;13.40;10.00;;;;;;;;;;4968319;28;20043;-77
2022/02/28 02:44:01;;;;;;;16.08;10.43;;;;;;;;;;4970117;28;20069;-78
2022/02/28 02:46:27;;;;;;;16.17;10.77;;;;;;;;;;4972187;28;20043;-78
2022/02/28 02:48:53;;;;;;;15.63;10.65;;;;;;;;;;4971150;28;20046;-78
2022/02/28 02:51:20;;;;;;;13.75;10.15;;;;;;;;;;4971591;28;20160;-78
2022/02/28 02:53:46;;;;;;;12.52;10.07;;;;;;;;;;4969113;28;20373;-77
2022/02/28 02:56:14;;;;;;;16.55;11.00;;;;;;;;;;4971048;28;20050;-77
2022/02/28 02:58:40;;;;;;;15.27;11.43;;;;;;;;;;4971199;28;20082;-77
2022/02/28 03:01:06;;;;;;;15.20;10.80;;;;;;;;;;4971389;28;20039;-77
2022/02/28 03:03:32;;;;;;;16.73;11.07;;;;;;;;;;4967466;28;20051;-77
2022/02/28 03:05:58;;;;;;;14.85;11.15;;;;;;;;;;4966186;28;20085;-77
2022/02/28 03:08:24;;;;;;;13.13;10.18;;;;;;;;;;4971225;28;20102;-77
2022/02/28 03:10:50;;;;;;;14.70;10.77;;;;;;;;;;4969271;28;20051;-77
2022/02/28 03:13:16;;;;;;;15.65;10.80;;;;;;;;;;4969516;28;20051;-78
2022/02/28 03:15:42;;;;;;;14.32;11.05;;;;;;;;;;4963480;28;20039;-78
2022/02/28 03:18:08;;;;;;;16.65;11.13;;;;;;;;;;4967658;28;20074;-78
2022/02/28 03:20:34;;;;;;;14.98;10.25;;;;;;;;;;4965299;28;20057;-78
2022/02/28 03:23:00;;;;;;;13.05;10.15;;;;;;;;;;4971574;28;20047;-78
2022/02/28 03:25:26;;;;;;;15.55;10.70;;;;;;;;;;4970021;28;20378;-78
2022/02/28 03:27:52;;;;;;;13.80;10.15;;;;;;;;;;4966476;28;20466;-77
2022/02/28 03:30:18;;;;;;;14.07;10.05;;;;;;;;;;4968957;28;20042;-77
2022/02/28 03:32:44;;;;;;;13.40;10.23;;;;;;;;;;4954685;28;20049;-77
2022/02/28 03:35:10;;;;;;;13.80;10.07;;;;;;;;;;4970841;28;20488;-77
2022/02/28 03:37:36;;;;;;;14.30;10.02;;;;;;;;;;4955440;28;20035;-77
2022/02/28 03:40:03;;;;;;;12.10;10.07;;;;;;;;;;4970981;28;20043;-77
2022/02/28 03:42:30;;;;;;;15.20;9.93;;;;;;;;;;4970068;28;20118;-77
2022/02/28 03:44:56;;;;;;;13.93;9.82;;;;;;;;;;4971160;28;20059;-77
2022/02/28 03:47:22;;;;;;;13.93;9.68;;;;;;;;;;4968136;28;20038;-77
2022/02/28 03:49:48;;;;;;;15.23;10.30;;;;;;;;;;4970123;28;20473;-77
2022/02/28 03:52:14;;;;;;;14.13;9.63;;;;;;;;;;4970383;28;20508;-77
2022/02/28 03:54:40;;;;;;;12.98;9.25;;;;;;;;;;4971141;28;20179;-77
2022/02/28 03:57:06;;;;;;;15.80;9.82;;;;;;;;;;4969886;28;20481;-77
2022/02/28 03:59:32;;;;;;;11.40;8.98;;;;;;;;;;4970648;28;20050;-77
2022/02/28 04:01:58;;;;;;;13.98;9.27;;;;;;;;;;4969555;28;20038;-77
2022/02/28 04:04:24;;;;;;;14.15;9.93;;;;;;;;;;4954663;28;20041;-78
2022/02/28 04:06:50;;;;;;;14.65;10.00;;;;;;;;;;4970502;28;20058;-77
2022/02/28 04:09:17;;;;;;;13.98;9.63;;;;;;;;;;4949981;28;20085;-78
2022/02/28 04:11:43;;;;;;;13.00;8.95;;;;;;;;;;4970968;28;20086;-77
2022/02/28 04:14:09;;;;;;;13.15;9.85;;;;;;;;;;4954348;28;20066;-77
2022/02/28 04:16:35;;;;;;;13.55;9.63;;;;;;;;;;4970369;28;20126;-77
2022/02/28 04:19:01;;;;;;;12.30;9.18;;;;;;;;;;4969217;28;20047;-77
2022/02/28 04:21:27;;;;;;;13.73;9.27;;;;;;;;;;4968702;28;20133;-77
2022/02/28 04:23:53;;;;;;;12.60;9.10;;;;;;;;;;4954778;28;20137;-77
2022/02/28 04:26:20;;;;;;;13.00;9.05;;;;;;;;;;4970681;28;20039;-78
2022/02/28 04:28:46;;;;;;;12.05;9.02;;;;;;;;;;4970722;28;20043;-78
2022/02/28 04:31:12;;;;;;;12.95;9.70;;;;;;;;;;4955039;28;20074;-77
2022/02/28 04:33:39;;;;;;;12.38;8.60;;;;;;;;;;4969836;28;20043;-77
2022/02/28 04:36:05;;;;;;;15.05;9.13;;;;;;;;;;4971075;28;20125;-78
2022/02/28 04:38:31;;;;;;;15.20;9.35;;;;;;;;;;4953303;28;20054;-78
2022/02/28 04:40:56;;;;;;;13.05;9.05;;;;;;;;;;4954215;28;20035;-78
2022/02/28 04:43:22;;;;;;;12.63;9.48;;;;;;;;;;4969279;28;20038;-78
2022/02/28 04:45:48;;;;;;;12.13;8.95;;;;;;;;;;4970323;28;20560;-78
2022/02/28 04:48:15;;;;;;;13.90;9.30;;;;;;;;;;4970059;28;20042;-78
2022/02/28 04:50:41;;;;;;;14.43;8.82;;;;;;;;;;4953324;28;20049;-78
2022/02/28 04:53:07;;;;;;;14.93;9.43;;;;;;;;;;4967262;28;20039;-78
2022/02/28 04:55:34;;;;;;;11.82;8.75;;;;;;;;;;4973747;28;20424;-78
2022/02/28 04:58:00;;;;;;;13.38;9.15;;;;;;;;;;4974415;28;20057;-78
2022/02/28 05:00:26;;;;;;;16.63;9.45;;;;;;;;;;4973948;28;20133;-78
2022/02/28 05:02:52;;;;;;;13.50;9.50;;;;;;;;;;4957702;28;20134;-78
2022/02/28 05:05:18;;;;;;;14.45;10.23;;;;;;;;;;4974352;28;20085;-78
2022/02/28 05:07:46;;;;;;;12.73;9.82;;;;;;;;;;4970251;28;20038;-78
2022/02/28 05:10:11;;;;;;;11.90;9.50;;;;;;;;;;4972807;28;20057;-78
2022/02/28 05:12:37;;;;;;;13.45;10.00;;;;;;;;;;4974129;28;20385;-78
2022/02/28 05:15:04;;;;;;;11.50;8.77;;;;;;;;;;4944180;28;20047;-78
2022/02/28 05:17:30;;;;;;;14.55;9.50;;;;;;;;;;4973864;28;20047;-78
2022/02/28 05:19:56;;;;;;;15.45;9.90;;;;;;;;;;4973334;28;20113;-78
2022/02/28 05:22:22;;;;;;;11.23;8.77;;;;;;;;;;4957953;28;20125;-78
2022/02/28 05:24:48;;;;;;;14.02;9.38;;;;;;;;;;4971430;28;20039;-78
2022/02/28 05:27:14;;;;;;;15.05;9.43;;;;;;;;;;4973736;28;20047;-78
2022/02/28 05:29:40;;;;;;;14.40;10.10;;;;;;;;;;4957055;28;20112;-78
2022/02/28 05:32:06;;;;;;;13.00;8.93;;;;;;;;;;4973957;28;20504;-78
2022/02/28 05:34:32;;;;;;;11.93;9.38;;;;;;;;;;4957254;28;20545;-78
2022/02/28 05:36:59;;;;;;;13.00;9.20;;;;;;;;;;4973466;28;20444;-78
2022/02/28 05:39:25;;;;;;;12.73;9.55;;;;;;;;;;4973534;28;20085;-78
2022/02/28 05:41:51;;;;;;;13.63;9.68;;;;;;;;;;4971183;28;20046;-78
2022/02/28 05:44:17;;;;;;;14.65;9.48;;;;;;;;;;4972346;28;20039;-78
2022/02/28 05:46:43;;;;;;;12.82;9.57;;;;;;;;;;4973505;28;20039;-78
2022/02/28 05:49:09;;;;;;;12.27;9.27;;;;;;;;;;4972303;28;20050;-78
2022/02/28 05:51:35;;;;;;;14.23;8.85;;;;;;;;;;4956647;28;20039;-78
2022/02/28 05:54:02;;;;;;;12.20;9.18;;;;;;;;;;4972889;28;20101;-78
2022/02/28 05:56:29;;;;;;;13.65;9.45;;;;;;;;;;4972772;28;20043;-78
2022/02/28 05:58:55;;;;;;;12.88;8.88;;;;;;;;;;4954613;28;20373;-78
2022/02/28 06:01:21;;;;;;;13.10;9.80;;;;;;;;;;4972294;28;20057;-78
2022/02/28 06:03:47;;;;;;;14.60;10.20;;;;;;;;;;4947096;28;20456;-78
2022/02/28 06:06:14;;;;;;;12.18;9.43;;;;;;;;;;4955538;28;20035;-78
2022/02/28 06:08:40;;;;;;;16.35;10.38;;;;;;;;;;4972957;28;20042;-78
2022/02/28 06:11:06;;;;;;;14.48;9.25;;;;;;;;;;4972765;28;20047;-78
2022/02/28 06:13:32;;;;;;;13.10;9.65;;;;;;;;;;4971056;28;20073;-78
2022/02/28 06:15:59;;;;;;;13.85;9.85;;;;;;;;;;4956573;28;20054;-78
2022/02/28 06:18:25;;;;;;;15.02;10.02;;;;;;;;;;4956249;28;20039;-78
2022/02/28 06:20:51;;;;;;;14.10;11.00;;;;;;;;;;4971865;28;20062;-78
2022/02/28 06:23:17;;;;;;;13.52;10.35;;;;;;;;;;4966677;28;20042;-78
2022/02/28 06:25:44;;;;;;;15.57;10.18;;;;;;;;;;4971987;28;20030;-78
2022/02/28 06:28:11;;;;;;;14.20;10.02;;;;;;;;;;4970236;28;20047;-78
2022/02/28 06:30:37;;;;;;;13.60;9.68;;;;;;;;;;4970916;28;20039;-78
2022/02/28 06:33:03;;;;;;;13.43;9.77;;;;;;;;;;4972482;28;20046;-78
2022/02/28 06:35:30;;;;;;;15.93;11.32;;;;;;;;;;4972360;28;20377;-78
2022/02/28 06:37:56;;;;;;;22.08;15.30;;;;;;;;;;4971406;28;20772;-78
2022/02/28 06:40:22;;;;;;;16.48;11.68;;;;;;;;;;4968060;28;20197;-78
2022/02/28 06:42:48;;;;;;;14.52;10.88;;;;;;;;;;4972345;28;20042;-78
2022/02/28 06:45:14;;;;;;;14.48;10.90;;;;;;;;;;4960242;28;20050;-78
2022/02/28 06:47:40;;;;;;;14.18;10.52;;;;;;;;;;4941669;28;20521;-78
2022/02/28 06:50:06;;;;;;;15.43;11.50;;;;;;;;;;4963985;28;20054;-78
2022/02/28 06:52:32;;;;;;;14.63;9.43;;;;;;;;;;4971662;28;20056;-78
2022/02/28 06:54:59;;;;;;;15.20;10.95;;;;;;;;;;4955977;28;20481;-78
2022/02/28 06:57:25;;;;;;;16.17;11.15;;;;;;;;;;4964474;28;20182;-78
2022/02/28 06:59:52;;;;;;;15.93;11.45;;;;;;;;;;4953357;28;20047;-78
2022/02/28 07:02:18;;;;;;;21.00;10.80;;;;;;;;;;4966638;28;20046;-78
2022/02/28 07:04:44;;;;;;;14.05;9.93;;;;;;;;;;4952272;28;20377;-78
2022/02/28 07:07:14;;;;;;;14.60;9.75;;;;;;;;;;4961576;28;20074;-78
2022/02/28 07:09:40;;;;;;;14.23;10.45;;;;;;;;;;4965788;28;20494;-79
2022/02/28 07:12:06;;;;;;;13.35;10.38;;;;;;;;;;4971583;28;20053;-79
2022/02/28 07:14:32;;;;;;;13.25;10.13;;;;;;;;;;4971172;28;20053;-79
2022/02/28 07:16:58;;;;;;;12.25;9.60;;;;;;;;;;4960347;28;20480;-79
2022/02/28 07:19:24;;;;;;;12.35;9.57;;;;;;;;;;4965523;28;20175;-79
2022/02/28 07:21:50;;;;;;;11.95;9.80;;;;;;;;;;4941182;29;20138;-79
2022/02/28 07:24:16;;;;;;;12.60;9.15;;;;;;;;;;4942940;28;20553;-78
2022/02/28 07:26:42;;;;;;;12.35;8.70;;;;;;;;;;4955651;28;20569;-78
2022/02/28 07:29:08;;;;;;;10.85;9.55;;;;;;;;;;4955369;28;20066;-79
2022/02/28 07:31:35;;;;;;;12.65;9.27;;;;;;;;;;4966857;28;20085;-79
2022/02/28 07:34:00;;;;;;;14.20;9.70;;;;;;;;;;4958317;28;20047;-79
2022/02/28 07:36:27;;;;;;;13.13;9.80;;;;;;;;;;4959925;28;20045;-78
2022/02/28 07:38:53;;;;;;;13.18;9.43;;;;;;;;;;4971598;28;20210;-78
2022/02/28 07:41:19;;;;;;;14.52;9.68;;;;;;;;;;4952609;28;20504;-79
2022/02/28 07:43:45;;;;;;;13.27;9.25;;;;;;;;;;4955221;28;20051;-78
2022/02/28 07:46:11;;;;;;;12.60;9.32;;;;;;;;;;4955962;28;20117;-78
2022/02/28 07:48:37;;;;;;;12.77;9.48;;;;;;;;;;4968013;28;20074;-78
2022/02/28 07:51:04;;;;;;;13.90;10.02;;;;;;;;;;4962170;28;20047;-78
2022/02/28 07:53:30;;;;;;;11.65;10.23;;;;;;;;;;4955448;28;20057;-78
2022/02/28 07:55:56;;;;;;;12.82;9.75;;;;;;;;;;4942048;28;20046;-79
2022/02/28 07:58:22;;;;;;;10.85;9.43;;;;;;;;;;4961015;28;21026;-78
2022/02/28 08:00:48;;;;;;;11.27;9.20;;;;;;;;;;4952701;28;20043;-78
2022/02/28 08:03:14;;;;;;;12.50;9.50;;;;;;;;;;4962307;28;20043;-78
2022/02/28 08:05:40;;;;;;;12.35;9.27;;;;;;;;;;4953361;28;20412;-79
2022/02/28 08:08:08;;;;;;;12.18;9.50;;;;;;;;;;4961663;28;20617;-78
2022/02/28 08:10:34;;;;;;;13.60;10.13;;;;;;;;;;4936924;29;20047;-79
2022/02/28 08:13:00;;;;;;;10.73;8.38;;;;;;;;;;4945671;28;20098;-79
2022/02/28 08:15:26;;;;;;;11.27;9.07;;;;;;;;;;4939245;28;20496;-78
2022/02/28 08:17:51;;;;;;;12.80;8.77;;;;;;;;;;4970828;28;20042;-78
2022/02/28 08:20:17;;;;;;;13.85;9.35;;;;;;;;;;4974152;23;20118;-79
2022/02/28 08:22:43;;;;;;;11.18;9.27;;;;;;;;;;4937485;28;20125;-79
2022/02/28 08:25:10;;;;;;;13.20;9.07;;;;;;;;;;4944731;28;20142;-79
2022/02/28 08:27:36;;;;;;;13.80;9.35;;;;;;;;;;4923464;28;20086;-79
2022/02/28 08:30:02;;;;;;;12.55;9.35;;;;;;;;;;4945668;28;20043;-79
2022/02/28 08:32:28;;;;;;;12.00;9.30;;;;;;;;;;4929067;28;20047;-79
2022/02/28 08:34:54;;;;;;;11.25;9.15;;;;;;;;;;4952346;28;20082;-78
2022/02/28 08:37:20;;;;;;;11.30;8.80;;;;;;;;;;4955778;28;20035;-79
2022/02/28 08:39:46;;;;;;;11.38;9.27;;;;;;;;;;4924464;28;20221;-79
2022/02/28 08:42:12;;;;;;;10.23;8.82;;;;;;;;;;4936412;28;20043;-79
2022/02/28 08:44:38;;;;;;;11.75;8.70;;;;;;;;;;4945762;28;20039;-79
2022/02/28 08:47:05;;;;;;;11.38;9.40;;;;;;;;;;4940120;29;20039;-79
2022/02/28 08:49:31;;;;;;;9.90;8.85;;;;;;;;;;4945683;28;20047;-79
2022/02/28 08:51:57;;;;;;;11.82;8.77;;;;;;;;;;4952311;29;20046;-79
2022/02/28 08:54:23;;;;;;;11.00;8.90;;;;;;;;;;4942783;28;20043;-79
2022/02/28 08:56:49;;;;;;;10.18;7.90;;;;;;;;;;4927906;29;20145;-79
2022/02/28 08:59:15;;;;;;;11.73;8.45;;;;;;;;;;4949369;29;20046;-79
2022/02/28 09:01:41;;;;;;;10.23;8.00;;;;;;;;;;4948374;28;20038;-79
2022/02/28 09:04:07;;;;;;;11.40;8.63;;;;;;;;;;4948835;29;20057;-79
2022/02/28 09:06:33;;;;;;;9.88;7.53;;;;;;;;;;4967001;28;20043;-79
2022/02/28 09:08:59;;;;;;;9.57;8.00;;;;;;;;;;4944367;29;20046;-79
2022/02/28 09:11:25;;;;;;;9.25;7.88;;;;;;;;;;4940019;28;20054;-80
2022/02/28 09:13:51;;;;;;;10.02;7.60;;;;;;;;;;4939666;29;20211;-80
2022/02/28 09:16:17;;;;;;;8.55;7.30;;;;;;;;;;4939858;29;20087;-79
2022/02/28 09:18:44;;;;;;;8.82;7.40;;;;;;;;;;4923952;29;20051;-79
2022/02/28 09:21:10;;;;;;;9.95;7.57;;;;;;;;;;4945699;28;20054;-79
2022/02/28 09:23:36;;;;;;;7.90;7.10;;;;;;;;;;4943209;29;20061;-79
2022/02/28 09:26:01;;;;;;;10.02;7.45;;;;;;;;;;4942956;28;20042;-79
2022/02/28 09:28:27;;;;;;;10.93;7.68;;;;;;;;;;4954389;28;20041;-79
2022/02/28 09:30:54;;;;;;;8.98;7.10;;;;;;;;;;4954198;28;20050;-79
2022/02/28 09:33:20;;;;;;;8.45;7.40;;;;;;;;;;4958238;28;20073;-79
2022/02/28 09:35:47;;;;;;;8.95;7.25;;;;;;;;;;4932283;29;20097;-79
2022/02/28 09:38:13;;;;;;;9.15;7.15;;;;;;;;;;4953046;28;20115;-79
2022/02/28 09:40:42;;;;;;;8.27;6.90;;;;;;;;;;4977577;28;20589;-79
2022/02/28 09:43:08;;;;;;;8.82;7.43;;;;;;;;;;4989510;28;20047;-79
2022/02/28 09:45:34;;;;;;;7.40;6.60;;;;;;;;;;4951853;28;20035;-79
2022/02/28 09:48:00;;;;;;;9.93;6.90;;;;;;;;;;4941281;28;20045;-79
2022/02/28 09:50:26;;;;;;;10.82;6.82;;;;;;;;;;4939226;28;20055;-78
2022/02/28 09:52:52;;;;;;;8.70;7.80;;;;;;;;;;4926599;29;20050;-79
2022/02/28 09:55:18;;;;;;;7.63;6.60;;;;;;;;;;4923594;29;20047;-79
2022/02/28 09:57:48;;;;;;;10.48;7.40;;;;;;;;;;4954948;28;20102;-79
2022/02/28 10:00:19;;;;;;;10.18;7.55;;;;;;;;;;4952202;28;20126;-79
2022/02/28 10:02:45;;;;;;;8.40;7.18;;;;;;;;;;4958134;28;20097;-79
2022/02/28 10:05:11;;;;;;;8.13;7.32;;;;;;;;;;4989762;28;20366;-79
2022/02/28 10:07:48;;;;;;;8.77;7.10;;;;;;;;;;4932527;29;20054;-79
2022/02/28 10:10:14;;;;;;;8.43;6.57;;;;;;;;;;4942519;28;20130;-79
2022/02/28 10:12:40;;;;;;;7.90;6.97;;;;;;;;;;4950277;28;20121;-78
2022/02/28 10:15:12;;;;;;;9.20;7.05;;;;;;;;;;4971685;28;20042;-79
2022/02/28 10:17:51;;;;;;;8.25;7.20;;;;;;;;;;4957156;28;20376;-79
2022/02/28 10:20:19;;;;;;;11.18;8.30;;;;;;;;;;4951211;28;20066;-79
2022/02/28 10:22:45;;;;;;;12.38;7.47;;;;;;;;;;4943643;28;20054;-79
2022/02/28 10:25:24;;;;;;;7.90;7.10;;;;;;;;;;4929055;28;20042;-79
2022/02/28 10:28:07;;;;;;;9.38;7.78;;;;;;;;;;4949551;28;20039;-79
2022/02/28 10:30:33;;;;;;;9.07;7.57;;;;;;;;;;4950516;28;20054;-79
2022/02/28 10:33:06;;;;;;;8.60;7.05;;;;;;;;;;4941396;29;20117;-79
2022/02/28 10:38:21;;;;;;;9.13;7.63;;;;;;;;;;4938452;29;20101;-79
2022/02/28 10:40:48;;;;;;;9.07;7.32;;;;;;;;;;4953844;28;20051;-79
2022/02/28 10:43:27;;;;;;;8.90;7.55;;;;;;;;;;4930720;28;20043;-79
2022/02/28 10:45:54;;;;;;;9.43;7.25;;;;;;;;;;4935718;28;20039;-79
2022/02/28 10:48:21;;;;;;;9.15;7.00;;;;;;;;;;4935614;28;20031;-79
2022/02/28 10:50:48;;;;;;;8.82;7.93;;;;;;;;;;4952808;28;20125;-79
2022/02/28 10:53:17;;;;;;;11.95;7.32;;;;;;;;;;4969100;28;20077;-79
2022/02/28 10:55:43;;;;;;;8.80;7.32;;;;;;;;;;4947505;28;20646;-79
2022/02/28 10:58:13;;;;;;;8.93;7.10;;;;;;;;;;4946960;28;20073;-79
2022/02/28 11:00:52;;;;;;;10.75;7.80;;;;;;;;;;4946804;28;20532;-79
2022/02/28 11:03:18;;;;;;;9.40;7.07;;;;;;;;;;4946469;28;20764;-79
2022/02/28 11:05:51;;;;;;;8.73;7.82;;;;;;;;;;4952946;28;20042;-79
2022/02/28 11:08:18;;;;;;;8.77;7.13;;;;;;;;;;4951695;28;20477;-79
2022/02/28 11:10:44;;;;;;;8.75;7.60;;;;;;;;;;4947734;28;20047;-79
2022/02/28 11:13:10;;;;;;;8.43;7.53;;;;;;;;;;4953951;28;20473;-79
2022/02/28 11:15:36;;;;;;;10.35;7.72;;;;;;;;;;4953253;28;20046;-79
2022/02/28 11:18:02;;;;;;;8.75;7.13;;;;;;;;;;4947216;28;20054;-79
2022/02/28 11:20:28;;;;;;;9.35;8.02;;;;;;;;;;4949401;28;20051;-79
2022/02/28 11:22:54;;;;;;;9.10;7.82;;;;;;;;;;4948146;28;20063;-79
2022/02/28 11:25:21;;;;;;;8.73;7.68;;;;;;;;;;4934375;28;20492;-79
2022/02/28 11:27:48;;;;;;;9.27;7.68;;;;;;;;;;4936559;28;20046;-79
2022/02/28 11:30:17;;;;;;;9.23;7.30;;;;;;;;;;4948932;28;20048;-79
2022/02/28 11:32:43;;;;;;;10.43;8.15;;;;;;;;;;4947065;28;20047;-79
2022/02/28 11:35:38;;;;;;;9.07;7.38;;;;;;;;;;4928269;28;20051;-79
2022/02/28 11:38:12;;;;;;;8.80;7.13;;;;;;;;;;4938282;28;20042;-79
2022/02/28 11:40:39;;;;;;;9.27;7.65;;;;;;;;;;4939916;28;20071;-79
2022/02/28 11:43:14;;;;;;;9.20;7.50;;;;;;;;;;4944132;28;20043;-79
2022/02/28 11:45:53;;;;;;;10.20;7.40;;;;;;;;;;4934514;28;20126;-79
2022/02/28 11:48:22;;;;;;;8.52;7.38;;;;;;;;;;4948434;28;20434;-78
2022/02/28 11:50:52;;;;;;;9.23;7.60;;;;;;;;;;4934082;28;20492;-78
2022/02/28 11:53:37;;;;;;;8.30;7.50;;;;;;;;;;4950610;28;20485;-79
2022/02/28 11:56:23;;;;;;;8.75;7.40;;;;;;;;;;4953039;28;20393;-79
2022/02/28 11:58:58;;;;;;;7.38;6.60;;;;;;;;;;4952209;28;20565;-79
2022/02/28 12:01:38;;;;;;;9.40;7.60;;;;;;;;;;4942692;28;20125;-79
2022/02/28 12:04:11;;;;;;;8.80;7.70;;;;;;;;;;4949816;28;20043;-79
2022/02/28 12:06:50;;;;;;;9.63;7.63;;;;;;;;;;4949540;28;20074;-78
2022/02/28 12:09:37;;;;;;;9.52;8.10;;;;;;;;;;4948192;28;20035;-79
2022/02/28 12:12:41;;;;;;;8.77;7.72;;;;;;;;;;4946661;28;20089;-79
2022/02/28 12:15:07;;;;;;;8.65;7.55;;;;;;;;;;4853900;29;20173;-81
2022/02/28 12:17:34;;;;;;;8.95;7.47;;;;;;;;;;4851195;29;20057;-79
2022/02/28 12:20:19;;;;;;;7.80;7.00;;;;;;;;;;4886005;28;20134;-79
2022/02/28 12:23:08;;;;;;;8.65;7.45;;;;;;;;;;4949579;28;20515;-78
2022/02/28 12:25:52;;;;;;;8.68;7.57;;;;;;;;;;4942716;28;20048;-79
2022/02/28 12:28:23;;;;;;;8.35;7.45;;;;;;;;;;4944530;28;20043;-79
2022/02/28 12:30:54;;;;;;;8.88;7.90;;;;;;;;;;4944296;28;20069;-79
2022/02/28 12:33:24;;;;;;;10.05;7.97;;;;;;;;;;4949677;28;20378;-79
2022/02/28 12:35:51;;;;;;;8.73;7.45;;;;;;;;;;4952174;28;20035;-79
2022/02/28 12:38:18;;;;;;;9.45;7.50;;;;;;;;;;4939612;28;20047;-80
2022/02/28 12:40:51;;;;;;;8.68;7.72;;;;;;;;;;4957403;28;20044;-79
2022/02/28 12:43:18;;;;;;;9.80;8.10;;;;;;;;;;4943874;28;20047;-79
2022/02/28 12:45:46;;;;;;;8.68;7.78;;;;;;;;;;4950172;28;20064;-79
2022/02/28 12:48:12;;;;;;;8.82;7.93;;;;;;;;;;4947516;28;20389;-79
2022/02/28 12:50:44;;;;;;;9.27;8.27;;;;;;;;;;4950127;28;20051;-79
2022/02/28 12:53:10;;;;;;;10.00;7.55;;;;;;;;;;4949871;28;20053;-79
2022/02/28 12:55:36;;;;;;;8.70;7.78;;;;;;;;;;4927847;28;20074;-80
2022/02/28 12:58:02;;;;;;;8.15;7.32;;;;;;;;;;4942785;28;20492;-79
2022/02/28 13:00:35;;;;;;;10.90;8.35;;;;;;;;;;4945799;28;20070;-79
2022/02/28 13:03:04;;;;;;;10.25;8.50;;;;;;;;;;4942918;28;20493;-79
2022/02/28 13:05:30;;;;;;;9.52;7.80;;;;;;;;;;4943387;28;20160;-79
2022/02/28 13:08:03;;;;;;;9.60;8.15;;;;;;;;;;4952366;28;20067;-79
2022/02/28 13:10:29;;;;;;;8.70;7.80;;;;;;;;;;4941922;28;20039;-79
2022/02/28 13:12:55;;;;;;;10.25;7.75;;;;;;;;;;4950816;29;20039;-79
2022/02/28 13:15:21;;;;;;;8.60;7.80;;;;;;;;;;4934313;28;20046;-79
2022/02/28 13:17:47;;;;;;;9.63;7.40;;;;;;;;;;4957963;28;20109;-80
2022/02/28 13:20:14;;;;;;;9.60;7.63;;;;;;;;;;4957000;28;20093;-81
2022/02/28 13:22:41;;;;;;;9.32;7.93;;;;;;;;;;4948326;28;20129;-81
2022/02/28 13:25:11;;;;;;;8.88;7.97;;;;;;;;;;4941651;28;20058;-81
2022/02/28 13:27:37;;;;;;;9.70;7.18;;;;;;;;;;4952827;29;20097;-81
2022/02/28 13:30:03;;;;;;;9.20;8.18;;;;;;;;;;4957050;28;20378;-80
2022/02/28 13:32:29;;;;;;;8.18;7.38;;;;;;;;;;4955150;29;20062;-79
2022/02/28 13:34:59;;;;;;;10.40;8.88;;;;;;;;;;4953885;28;20457;-81
2022/02/28 13:37:26;;;;;;;10.02;7.70;;;;;;;;;;4957384;28;20046;-80
2022/02/28 13:39:54;;;;;;;8.68;7.75;;;;;;;;;;4949855;29;20054;-80
2022/02/28 13:42:23;;;;;;;8.25;7.32;;;;;;;;;;4954652;28;20478;-80
2022/02/28 13:44:51;;;;;;;10.85;7.63;;;;;;;;;;4952982;28;20058;-80
2022/02/28 13:47:20;;;;;;;8.13;7.32;;;;;;;;;;4950375;28;20046;-80
2022/02/28 13:49:48;;;;;;;8.32;7.28;;;;;;;;;;4958466;28;20074;-80
2022/02/28 13:52:18;;;;;;;7.72;7.00;;;;;;;;;;4927351;28;20066;-79
2022/02/28 13:55:00;;;;;;;9.70;7.72;;;;;;;;;;4937329;28;20047;-78
2022/02/28 13:57:27;;;;;;;7.88;7.07;;;;;;;;;;4936502;28;20050;-79
2022/02/28 14:00:13;;;;;;;8.27;7.00;;;;;;;;;;4945457;28;20070;-79
2022/02/28 14:02:52;;;;;;;10.15;6.78;;;;;;;;;;4943268;28;20663;-78
2022/02/28 14:05:18;;;;;;;11.05;6.88;;;;;;;;;;4923197;28;20038;-79
2022/02/28 14:07:54;;;;;;;13.70;6.72;;;;;;;;;;4938933;28;20043;-78
2022/02/28 14:10:32;;;;;;;7.70;6.57;;;;;;;;;;4952662;28;20445;-78
2022/02/28 14:12:58;;;;;;;8.27;6.93;;;;;;;;;;4922562;28;20043;-78
2022/02/28 14:15:25;;;;;;;8.32;7.18;;;;;;;;;;4940175;28;20043;-78
2022/02/28 14:18:01;;;;;;;8.90;7.00;;;;;;;;;;4940935;28;20132;-78
2022/02/28 14:20:27;;;;;;;7.63;6.55;;;;;;;;;;4940802;28;20042;-78
2022/02/28 14:23:16;;;;;;;7.78;6.90;;;;;;;;;;4942159;28;20054;-79
2022/02/28 14:25:43;;;;;;;8.60;7.38;;;;;;;;;;4931943;28;20043;-78
2022/02/28 14:28:20;;;;;;;8.95;7.30;;;;;;;;;;4948660;28;20027;-78
2022/02/28 14:31:02;;;;;;;9.65;7.05;;;;;;;;;;4938030;28;20051;-78
2022/02/28 14:33:29;;;;;;;7.85;6.90;;;;;;;;;;4923104;28;20047;-78
2022/02/28 14:35:55;;;;;;;10.10;7.68;;;;;;;;;;4937752;28;20051;-78